Terminal Aerodrome Forecast
Issued by NWS

Home | Current Version | Previous Version | Graphics & Text | Print | Product List | Glossary On
Versions: 1 2 3 4 5 6 7 8 9 10 11 12 13 14 15 16 17 18 19 20 21 22 23 24 25 26 27 28 29 30 31 32 33 34 35 36 37 38 39 40 41 42 43 44 45 46 47 48 49 50
000
FTUS43 KLOT 181324 AAA
TAFGYY
TAF AMD
KGYY 181324Z 1813/1912 28013G20KT P6SM BKN016
     FM181500 29012G20KT P6SM BKN025
     FM181700 29012G19KT P6SM SCT030
     FM190100 28005KT P6SM SCT040 OVC070 PROB30 1904/1908 5SM -SHRA
      OVC035=

USA.gov is the U.S. government's official web portal to all federal, state and local government web resources and services.